Terminal Aerodrome Forecast
Issued by NWS

Home | Current Version | Previous Version | Text Only | Print | Product List | Glossary On
Versions: 1 2 3 4 5 6 7 8 9 10 11 12
000
FTUS45 KABQ 172321
TAFFMN
TAF
KFMN 172321Z 1800/1824 26006KT P6SM SKC
     FM180100 VRB04KT P6SM FEW250
     FM180700 09005KT P6SM SCT250
     FM181900 26006KT P6SM BKN200=

USA.gov is the U.S. government's official web portal to all federal, state and local government web resources and services.